createdAt,value
2022-12-11T00:00:32.401Z,11.97
2022-12-11T00:03:00.315Z,11.23
2022-12-11T00:05:28.275Z,13.70
2022-12-11T00:07:56.245Z,14.27
2022-12-11T00:10:24.764Z,15.10
2022-12-11T00:12:52.803Z,14.67
2022-12-11T00:15:22.044Z,14.60
2022-12-11T00:17:49.917Z,12.80
2022-12-11T00:20:17.934Z,15.30
2022-12-11T00:22:45.818Z,14.20
2022-12-11T00:25:13.795Z,16.70
2022-12-11T00:27:41.742Z,14.33
2022-12-11T00:30:10.811Z,17.73
2022-12-11T00:32:40.050Z,14.40
2022-12-11T00:35:08.798Z,14.07
2022-12-11T00:37:37.026Z,18.40
2022-12-11T00:40:05.527Z,16.07
2022-12-11T00:42:33.414Z,13.63
2022-12-11T00:45:01.291Z,15.10
2022-12-11T00:47:29.178Z,11.20
2022-12-11T00:49:58.480Z,13.53
2022-12-11T00:52:26.393Z,13.63
2022-12-11T00:54:54.295Z,18.20
2022-12-11T00:57:22.189Z,11.90
2022-12-11T00:59:50.054Z,13.60
2022-12-11T01:02:17.937Z,13.27
2022-12-11T01:04:45.868Z,14.93
2022-12-11T01:07:15.124Z,10.07
2022-12-11T01:10:00.656Z,10.70
2022-12-11T01:12:28.638Z,12.33
2022-12-11T01:14:56.598Z,11.87
2022-12-11T01:17:24.474Z,12.30
2022-12-11T01:19:54.859Z,12.43
2022-12-11T01:22:24.197Z,9.80
2022-12-11T01:24:52.086Z,13.93
2022-12-11T01:27:19.963Z,11.33
2022-12-11T01:29:47.938Z,11.00
2022-12-11T01:32:15.835Z,11.27
2022-12-11T01:34:43.960Z,11.63
2022-12-11T01:37:11.873Z,13.47
2022-12-11T01:39:41.126Z,15.30
2022-12-11T01:42:16.675Z,13.27
2022-12-11T01:45:27.598Z,13.87
2022-12-11T01:48:01.650Z,11.03
2022-12-11T01:50:32.045Z,13.77
2022-12-11T01:53:00.116Z,9.43
2022-12-11T01:55:29.556Z,13.33
2022-12-11T01:57:57.607Z,13.67
2022-12-11T02:00:25.522Z,13.37
2022-12-11T02:02:53.451Z,12.73
2022-12-11T02:05:21.498Z,16.47
2022-12-11T02:07:53.568Z,12.10
2022-12-11T02:10:22.394Z,21.83
2022-12-11T02:12:59.597Z,13.07
2022-12-11T02:15:34.343Z,18.90
2022-12-11T02:18:13.676Z,17.87
2022-12-11T02:20:45.772Z,12.70
2022-12-11T02:23:39.991Z,14.37
2022-12-11T02:26:22.804Z,15.93
2022-12-11T02:28:55.494Z,14.73
2022-12-11T02:31:29.403Z,15.47
2022-12-11T02:34:02.833Z,16.43
2022-12-11T02:36:34.762Z,11.30
2022-12-11T02:39:04.357Z,15.47
2022-12-11T02:41:34.783Z,13.37
2022-12-11T02:44:05.323Z,15.03
2022-12-11T02:46:35.908Z,12.30
2022-12-11T02:49:06.541Z,11.63
2022-12-11T02:51:38.766Z,13.80
2022-12-11T02:54:09.953Z,13.37
2022-12-11T02:56:43.070Z,13.00
2022-12-11T02:59:16.624Z,13.03
2022-12-11T03:01:44.825Z,13.13
2022-12-11T03:04:12.900Z,9.20
2022-12-11T03:06:44.762Z,11.57
2022-12-11T03:09:12.653Z,16.43
2022-12-11T03:11:40.556Z,11.87
2022-12-11T03:14:09.284Z,15.50
2022-12-11T03:16:42.813Z,11.37
2022-12-11T03:19:20.098Z,13.97
2022-12-11T03:21:55.498Z,12.77
2022-12-11T03:24:31.220Z,12.03
2022-12-11T03:27:09.527Z,12.27
2022-12-11T03:29:44.622Z,10.30
2022-12-11T03:32:19.780Z,12.27
2022-12-11T03:34:58.161Z,12.20
2022-12-11T03:37:29.744Z,12.97
2022-12-11T03:40:03.283Z,17.73
2022-12-11T03:42:32.258Z,16.00
2022-12-11T03:45:03.023Z,15.43
2022-12-11T03:47:33.750Z,12.30
2022-12-11T03:50:04.795Z,10.73
2022-12-11T03:52:33.774Z,14.50
2022-12-11T03:55:03.822Z,13.13
2022-12-11T03:57:36.251Z,17.63
2022-12-11T04:00:06.596Z,16.23
2022-12-11T04:02:35.847Z,13.70
2022-12-11T04:05:04.018Z,11.57
2022-12-11T04:07:32.295Z,12.87
2022-12-11T04:10:01.381Z,16.33
2022-12-11T04:12:29.328Z,10.97
2022-12-11T04:15:01.966Z,12.80
2022-12-11T04:17:48.035Z,11.70
2022-12-11T04:20:35.363Z,17.37
2022-12-11T04:23:23.002Z,15.03
2022-12-11T04:25:51.453Z,16.00
2022-12-11T04:28:19.334Z,11.80
2022-12-11T04:30:50.566Z,13.90
2022-12-11T04:33:18.540Z,14.27
2022-12-11T04:35:47.768Z,19.23
2022-12-11T04:38:15.686Z,12.17
2022-12-11T04:40:43.635Z,11.98
2022-12-11T04:43:11.511Z,15.57
2022-12-11T04:45:39.381Z,11.47
2022-12-11T04:48:07.729Z,14.85
2022-12-11T04:50:35.649Z,13.00
2022-12-11T04:53:04.981Z,13.63
2022-12-11T04:55:32.843Z,9.80
2022-12-11T04:58:00.732Z,11.03
2022-12-11T05:00:28.585Z,14.70
2022-12-11T05:02:56.536Z,11.38
2022-12-11T05:05:24.498Z,9.77
2022-12-11T05:07:52.407Z,9.55
2022-12-11T05:10:21.789Z,12.03
2022-12-11T05:12:49.741Z,10.73
2022-12-11T05:15:17.789Z,16.43
2022-12-11T05:17:45.670Z,11.30
2022-12-11T05:20:13.585Z,9.83
2022-12-11T05:22:41.542Z,13.60
2022-12-11T05:25:11.136Z,14.40
2022-12-11T05:27:40.546Z,10.50
2022-12-11T05:30:10.245Z,11.40
2022-12-11T05:32:38.145Z,10.07
2022-12-11T05:35:06.811Z,9.53
2022-12-11T05:37:35.501Z,9.80
2022-12-11T05:40:06.035Z,11.60
2022-12-11T05:42:33.973Z,11.47
2022-12-11T05:45:03.434Z,13.20
2022-12-11T05:47:32.527Z,9.13
2022-12-11T05:50:00.381Z,10.53
2022-12-11T05:52:28.261Z,12.80
2022-12-11T05:54:56.119Z,12.73
2022-12-11T05:57:24.041Z,12.93
2022-12-11T05:59:51.926Z,8.60
2022-12-11T06:02:21.363Z,13.70
2022-12-11T06:04:49.500Z,16.77
2022-12-11T06:07:17.377Z,12.50
2022-12-11T06:09:45.350Z,11.53
2022-12-11T06:12:13.207Z,9.90
2022-12-11T06:14:41.228Z,12.60
2022-12-11T06:17:09.121Z,8.07
2022-12-11T06:19:38.524Z,6.37
2022-12-11T06:22:06.396Z,6.73
2022-12-11T06:24:34.428Z,10.53
2022-12-11T06:27:02.311Z,9.30
2022-12-11T06:29:30.197Z,10.53
2022-12-11T06:31:58.130Z,8.43
2022-12-11T06:34:26.050Z,11.20
2022-12-11T06:36:55.323Z,10.33
2022-12-11T06:39:23.281Z,9.30
2022-12-11T06:41:51.122Z,10.27
2022-12-11T06:44:18.989Z,10.77
2022-12-11T06:46:46.841Z,7.77
2022-12-11T06:49:14.736Z,11.43
2022-12-11T06:51:43.757Z,9.60
2022-12-11T06:54:12.977Z,9.40
2022-12-11T06:56:40.900Z,11.70
2022-12-11T06:59:12.602Z,10.97
2022-12-11T07:01:40.906Z,11.67
2022-12-11T07:04:10.904Z,8.00
2022-12-11T07:06:38.759Z,14.37
2022-12-11T07:09:07.354Z,12.43
2022-12-11T07:11:36.596Z,9.40
2022-12-11T07:14:04.534Z,12.63
2022-12-11T07:16:32.478Z,10.60
2022-12-11T07:19:00.467Z,11.00
2022-12-11T07:21:28.353Z,12.97
2022-12-11T07:23:56.251Z,12.10
2022-12-11T07:26:24.244Z,11.33
2022-12-11T07:28:53.986Z,12.48
2022-12-11T07:31:24.735Z,13.90
2022-12-11T07:33:54.960Z,14.00
2022-12-11T07:36:23.888Z,9.20
2022-12-11T07:38:51.882Z,11.50
2022-12-11T07:41:20.320Z,8.83
2022-12-11T07:43:48.250Z,14.77
2022-12-11T07:46:19.822Z,14.20
2022-12-11T07:48:49.009Z,13.50
2022-12-11T07:51:19.118Z,11.50
2022-12-11T07:53:48.998Z,9.23
2022-12-11T07:56:17.286Z,11.33
2022-12-11T07:58:45.721Z,11.73
2022-12-11T08:01:15.863Z,12.27
2022-12-11T08:03:45.786Z,12.20
2022-12-11T08:06:13.959Z,13.10
2022-12-11T08:08:42.894Z,10.57
2022-12-11T08:11:12.677Z,15.50
2022-12-11T08:13:41.047Z,10.10
2022-12-11T08:16:11.351Z,10.53
2022-12-11T08:18:39.442Z,13.47
2022-12-11T08:21:10.079Z,10.07
2022-12-11T08:23:38.121Z,11.13
2022-12-11T08:26:07.773Z,11.60
2022-12-11T08:28:36.107Z,9.07
2022-12-11T08:31:06.273Z,11.43
2022-12-11T08:33:34.619Z,7.50
2022-12-11T08:36:03.840Z,9.67
2022-12-11T08:38:33.123Z,12.30
2022-12-11T08:41:01.040Z,9.53
2022-12-11T08:43:29.459Z,10.30
2022-12-11T08:45:57.382Z,10.63
2022-12-11T08:48:25.354Z,11.17
2022-12-11T08:50:53.251Z,12.00
2022-12-11T08:53:21.095Z,12.30
2022-12-11T08:55:50.430Z,11.00
2022-12-11T08:58:18.294Z,12.53
2022-12-11T09:00:46.267Z,16.87
2022-12-11T09:03:14.339Z,13.10
2022-12-11T09:05:42.232Z,12.20
2022-12-11T09:08:10.210Z,11.37
2022-12-11T09:10:38.098Z,9.97
2022-12-11T09:13:07.752Z,13.30
2022-12-11T09:15:36.316Z,12.50
2022-12-11T09:18:04.518Z,13.30
2022-12-11T09:20:32.448Z,11.80
2022-12-11T09:23:00.310Z,12.00
2022-12-11T09:25:28.179Z,14.80
2022-12-11T09:27:56.039Z,12.80
2022-12-11T09:30:25.343Z,13.83
2022-12-11T09:32:53.530Z,14.27
2022-12-11T09:35:21.737Z,12.60
2022-12-11T09:37:49.594Z,15.33
2022-12-11T09:40:17.639Z,12.50
2022-12-11T09:42:54.257Z,12.27
2022-12-11T09:45:22.346Z,17.00
2022-12-11T09:47:54.442Z,17.00
2022-12-11T09:50:25.827Z,16.10
2022-12-11T09:53:09.534Z,13.87
2022-12-11T09:55:44.353Z,17.77
2022-12-11T09:58:23.132Z,18.90
2022-12-11T10:00:55.893Z,19.83
2022-12-11T10:03:45.252Z,14.70
2022-12-11T10:06:20.253Z,16.17
2022-12-11T10:08:56.693Z,14.60
2022-12-11T10:11:40.083Z,10.70
2022-12-11T10:14:16.573Z,14.27
2022-12-11T10:16:46.857Z,18.00
2022-12-11T10:19:22.020Z,10.80
2022-12-11T10:21:51.922Z,15.17
2022-12-11T10:24:57.871Z,13.00
2022-12-11T10:27:19.358Z,11.20
2022-12-11T10:29:47.754Z,12.47
2022-12-11T10:32:24.590Z,12.00
2022-12-11T10:35:00.947Z,8.07
2022-12-11T10:37:29.066Z,10.43
2022-12-11T10:39:56.945Z,11.27
2022-12-11T10:42:25.143Z,13.00
2022-12-11T10:45:00.971Z,15.17
2022-12-11T10:47:29.457Z,11.40
2022-12-11T10:50:00.185Z,10.33
2022-12-11T10:52:31.574Z,13.80
2022-12-11T10:55:03.173Z,12.67
2022-12-11T10:57:34.954Z,11.33
2022-12-11T11:00:05.137Z,9.90
2022-12-11T11:02:37.219Z,10.03
2022-12-11T11:05:15.836Z,12.87
2022-12-11T11:07:43.916Z,11.73
2022-12-11T11:10:17.940Z,10.43
2022-12-11T11:12:47.981Z,9.27
2022-12-11T11:15:19.419Z,11.93
2022-12-11T11:17:54.998Z,7.87
2022-12-11T11:20:27.508Z,10.33
2022-12-11T11:22:57.715Z,11.50
2022-12-11T11:25:27.108Z,14.53
2022-12-11T11:27:57.516Z,12.30
2022-12-11T11:30:28.083Z,10.10
2022-12-11T11:32:57.551Z,8.20
2022-12-11T11:35:28.821Z,9.03
2022-12-11T11:38:04.768Z,11.23
2022-12-11T11:40:38.035Z,11.83
2022-12-11T11:43:15.843Z,7.40
2022-12-11T11:45:51.937Z,11.10
2022-12-11T11:48:31.550Z,10.40
2022-12-11T11:51:07.040Z,7.90
2022-12-11T11:53:41.561Z,10.27
2022-12-11T11:56:19.996Z,11.53
2022-12-11T11:58:56.134Z,8.93
2022-12-11T12:01:24.735Z,10.17
2022-12-11T12:03:53.385Z,9.03
2022-12-11T12:06:32.381Z,11.57
2022-12-11T12:09:13.015Z,11.90
2022-12-11T12:11:46.708Z,13.00
2022-12-11T12:14:50.463Z,11.43
2022-12-11T12:17:19.380Z,12.23
2022-12-11T12:19:56.584Z,15.73
2022-12-11T12:22:50.759Z,10.67
2022-12-11T12:25:26.368Z,10.83
2022-12-11T12:28:00.933Z,29.73
2022-12-11T12:30:38.185Z,17.70
2022-12-11T12:33:20.370Z,11.43
2022-12-11T12:35:59.758Z,15.17
2022-12-11T12:38:42.058Z,11.37
2022-12-11T12:41:19.519Z,11.67
2022-12-11T12:44:07.992Z,12.57
2022-12-11T12:46:52.360Z,9.63
2022-12-11T12:49:35.391Z,10.93
2022-12-11T12:52:05.335Z,12.10
2022-12-11T12:54:36.489Z,10.77
2022-12-11T12:57:05.436Z,8.83
2022-12-11T12:59:33.449Z,11.47
2022-12-11T13:02:03.082Z,11.80
2022-12-11T13:04:55.687Z,21.00
2022-12-11T13:07:29.730Z,10.90
2022-12-11T13:10:03.715Z,15.77
2022-12-11T13:12:43.494Z,9.53
2022-12-11T13:15:36.313Z,11.80
2022-12-11T13:18:07.853Z,11.53
2022-12-11T13:20:48.132Z,11.93
2022-12-11T13:23:27.738Z,10.73
2022-12-11T13:25:58.454Z,10.57
2022-12-11T13:28:35.249Z,9.50
2022-12-11T13:31:24.235Z,10.07
2022-12-11T13:33:53.794Z,11.20
2022-12-11T13:36:28.886Z,10.73
2022-12-11T13:39:01.054Z,11.70
2022-12-11T13:41:34.082Z,16.20
2022-12-11T13:44:03.461Z,7.70
2022-12-11T13:46:36.301Z,11.00
2022-12-11T13:49:06.920Z,13.00
2022-12-11T13:51:37.056Z,9.27
2022-12-11T13:54:07.250Z,7.80
2022-12-11T13:56:36.619Z,9.87
2022-12-11T13:59:04.583Z,8.07
2022-12-11T14:01:34.978Z,8.97
2022-12-11T14:04:05.782Z,11.40
2022-12-11T14:06:35.702Z,10.90
2022-12-11T14:09:06.401Z,11.27
2022-12-11T14:11:38.792Z,8.90
2022-12-11T14:14:16.047Z,11.00
2022-12-11T14:16:44.226Z,10.53
2022-12-11T14:19:18.051Z,10.90
2022-12-11T14:21:56.759Z,12.80
2022-12-11T14:24:25.137Z,9.77
2022-12-11T14:26:55.398Z,8.20
2022-12-11T14:29:29.617Z,9.33
2022-12-11T14:32:00.379Z,10.67
2022-12-11T14:34:34.149Z,8.87
2022-12-11T14:37:06.239Z,8.70
2022-12-11T14:39:37.548Z,7.97
2022-12-11T14:42:13.295Z,13.27
2022-12-11T14:44:49.273Z,8.40
2022-12-11T14:47:21.766Z,10.93
2022-12-11T14:49:55.434Z,11.20
2022-12-11T14:52:29.541Z,12.27
2022-12-11T14:55:03.915Z,10.07
2022-12-11T14:57:35.282Z,11.00
2022-12-11T15:00:04.658Z,11.57
2022-12-11T15:02:35.052Z,11.50
2022-12-11T15:05:15.833Z,11.37
2022-12-11T15:07:45.516Z,11.63
2022-12-11T15:10:31.225Z,11.87
2022-12-11T15:13:00.959Z,13.40
2022-12-11T15:15:30.947Z,8.67
2022-12-11T15:17:59.108Z,11.57
2022-12-11T15:20:29.350Z,11.20
2022-12-11T15:23:01.396Z,13.33
2022-12-11T15:25:30.639Z,15.50
2022-12-11T15:28:01.706Z,22.27
2022-12-11T15:30:33.918Z,17.70
2022-12-11T15:33:16.397Z,19.47
2022-12-11T15:35:55.282Z,17.13
2022-12-11T15:38:29.947Z,23.60
2022-12-11T15:40:58.533Z,24.20
2022-12-11T15:43:28.935Z,21.53
2022-12-11T15:45:57.032Z,19.37
2022-12-11T15:48:25.842Z,20.17
2022-12-11T15:50:53.699Z,17.40
2022-12-11T15:53:21.634Z,20.67
2022-12-11T15:55:49.805Z,22.33
2022-12-11T15:58:20.522Z,21.83
2022-12-11T16:00:50.073Z,20.00
2022-12-11T16:03:20.551Z,26.10
2022-12-11T16:05:50.022Z,24.73
2022-12-11T16:08:20.111Z,23.60
2022-12-11T16:10:48.565Z,22.73
2022-12-11T16:13:16.609Z,26.10
2022-12-11T16:15:46.451Z,31.10
2022-12-11T16:18:17.508Z,29.70
2022-12-11T16:20:46.526Z,37.17
2022-12-11T16:23:17.135Z,32.53
2022-12-11T16:25:46.178Z,26.93
2022-12-11T16:28:16.723Z,27.30
2022-12-11T16:30:44.942Z,26.03
2022-12-11T16:33:13.701Z,26.07
2022-12-11T16:35:43.716Z,27.17
2022-12-11T16:38:12.888Z,22.50
2022-12-11T16:40:41.433Z,28.50
2022-12-11T16:43:09.509Z,22.70
2022-12-11T16:45:37.488Z,26.20
2022-12-11T16:48:06.273Z,21.23
2022-12-11T16:50:34.564Z,20.70
2022-12-11T16:53:03.846Z,19.70
2022-12-11T16:55:31.774Z,23.67
2022-12-11T16:57:59.622Z,22.10
2022-12-11T17:00:27.516Z,22.70
2022-12-11T17:02:55.470Z,31.67
2022-12-11T17:05:23.745Z,29.10
2022-12-11T17:07:51.816Z,20.20
2022-12-11T17:10:21.075Z,24.43
2022-12-11T17:12:48.941Z,28.83
2022-12-11T17:15:16.932Z,28.27
2022-12-11T17:17:44.815Z,29.30
2022-12-11T17:20:13.009Z,27.83
2022-12-11T17:22:40.988Z,17.83
2022-12-11T17:25:09.792Z,20.23
2022-12-11T17:27:39.220Z,19.10
2022-12-11T17:30:08.361Z,22.20
2022-12-11T17:32:36.221Z,22.77
2022-12-11T17:35:04.149Z,20.60
2022-12-11T17:37:32.109Z,20.87
2022-12-11T17:40:00.032Z,23.00
2022-12-11T17:42:27.910Z,16.47
2022-12-11T17:44:57.165Z,22.10
2022-12-11T17:47:25.101Z,18.17
2022-12-11T17:49:52.995Z,18.67
2022-12-11T17:52:21.013Z,19.03
2022-12-11T17:54:49.097Z,21.17
2022-12-11T17:57:16.956Z,21.27
2022-12-11T17:59:44.912Z,22.30
2022-12-11T18:02:14.404Z,21.67
2022-12-11T18:04:42.434Z,21.93
2022-12-11T18:07:10.357Z,20.53
2022-12-11T18:09:40.333Z,19.57
2022-12-11T18:12:09.151Z,23.07
2022-12-11T18:14:37.718Z,25.23
2022-12-11T18:17:06.473Z,19.00
2022-12-11T18:19:35.750Z,30.77
2022-12-11T18:22:03.927Z,21.63
2022-12-11T18:24:32.522Z,26.33
2022-12-11T18:27:00.402Z,26.77
2022-12-11T18:29:28.761Z,29.30
2022-12-11T18:31:56.692Z,24.23
2022-12-11T18:34:24.614Z,28.97
2022-12-11T18:36:53.834Z,23.50
2022-12-11T18:39:21.775Z,21.87
2022-12-11T18:42:03.548Z,29.67
2022-12-11T18:44:37.662Z,40.10
2022-12-11T18:47:06.964Z,38.47
2022-12-11T18:49:34.827Z,25.30
2022-12-11T18:52:04.490Z,24.20
2022-12-11T18:54:32.535Z,19.80
2022-12-11T18:57:00.431Z,20.53
2022-12-11T18:59:28.300Z,16.37
2022-12-11T19:01:56.212Z,16.13
2022-12-11T19:04:24.153Z,39.90
2022-12-11T19:06:52.086Z,30.73
2022-12-11T19:09:21.383Z,35.60
2022-12-11T19:11:49.414Z,36.03
2022-12-11T19:14:17.290Z,34.17
2022-12-11T19:16:45.705Z,34.73
2022-12-11T19:19:16.682Z,37.10
2022-12-11T19:21:45.564Z,32.27
2022-12-11T19:24:16.151Z,24.50
2022-12-11T19:26:45.870Z,22.30
2022-12-11T19:29:20.660Z,21.60
2022-12-11T19:31:48.897Z,25.50
2022-12-11T19:34:16.985Z,16.73
2022-12-11T19:36:45.225Z,17.73
2022-12-11T19:39:14.259Z,20.30
2022-12-11T19:41:42.388Z,32.97
2022-12-11T19:44:11.818Z,127.80
2022-12-11T19:46:40.466Z,68.57
2022-12-11T19:49:08.509Z,54.13
2022-12-11T19:51:38.554Z,35.87
2022-12-11T19:54:07.957Z,33.47
2022-12-11T19:56:36.407Z,31.03
2022-12-11T19:59:05.551Z,26.40
2022-12-11T20:01:37.321Z,26.83
2022-12-11T20:04:07.111Z,25.80
2022-12-11T20:06:37.037Z,24.30
2022-12-11T20:09:06.389Z,38.30
2022-12-11T20:11:34.948Z,53.70
2022-12-11T20:14:02.807Z,55.07
2022-12-11T20:17:01.550Z,47.80
2022-12-11T20:19:20.007Z,36.40
2022-12-11T20:21:48.013Z,35.67
2022-12-11T20:24:15.926Z,36.43
2022-12-11T20:26:44.056Z,33.53
2022-12-11T20:29:13.545Z,38.50
2022-12-11T20:31:42.158Z,45.70
2022-12-11T20:34:10.100Z,39.87
2022-12-11T20:36:39.596Z,46.03
2022-12-11T20:39:07.478Z,33.17
2022-12-11T20:41:35.380Z,43.40
2022-12-11T20:44:03.317Z,35.37
2022-12-11T20:46:31.195Z,46.93
2022-12-11T20:48:59.660Z,47.57
2022-12-11T20:51:29.047Z,31.03
2022-12-11T20:53:59.317Z,32.33
2022-12-11T20:56:29.564Z,30.17
2022-12-11T20:58:58.637Z,20.27
2022-12-11T21:01:28.526Z,22.50
2022-12-11T21:03:56.522Z,25.30
2022-12-11T21:06:26.487Z,17.40
2022-12-11T21:08:54.780Z,17.73
2022-12-11T21:11:24.497Z,15.27
2022-12-11T21:13:53.066Z,15.77
2022-12-11T21:16:21.835Z,19.90
2022-12-11T21:18:49.858Z,22.23
2022-12-11T21:21:18.535Z,18.70
2022-12-11T21:23:46.425Z,19.60
2022-12-11T21:26:14.582Z,18.73
2022-12-11T21:28:43.869Z,21.23
2022-12-11T21:31:14.664Z,20.17
2022-12-11T21:33:42.664Z,23.97
2022-12-11T21:36:12.998Z,20.37
2022-12-11T21:38:44.359Z,31.77
2022-12-11T21:41:15.557Z,27.67
2022-12-11T21:44:47.064Z,26.20
2022-12-11T21:46:34.366Z,19.23
2022-12-11T21:49:02.325Z,23.37
2022-12-11T21:51:37.686Z,20.43
2022-12-11T21:54:10.194Z,16.13
2022-12-11T21:56:38.185Z,21.00
2022-12-11T21:59:07.617Z,16.10
2022-12-11T22:01:38.113Z,17.13
2022-12-11T22:04:06.715Z,15.00
2022-12-11T22:06:35.533Z,15.33
2022-12-11T22:09:05.026Z,13.20
2022-12-11T22:11:34.871Z,13.20
2022-12-11T22:14:03.076Z,19.47
2022-12-11T22:16:32.366Z,16.00
2022-12-11T22:19:00.439Z,18.60
2022-12-11T22:21:28.338Z,12.20
2022-12-11T22:23:56.272Z,17.73
2022-12-11T22:26:26.092Z,12.80
2022-12-11T22:28:55.513Z,14.10
2022-12-11T22:31:26.179Z,13.23
2022-12-11T22:33:56.228Z,16.90
2022-12-11T22:36:25.185Z,14.80
2022-12-11T22:38:53.094Z,14.23
2022-12-11T22:41:25.407Z,15.70
2022-12-11T22:43:53.878Z,19.90
2022-12-11T22:46:23.905Z,18.40
2022-12-11T22:48:52.548Z,20.83
2022-12-11T22:51:22.756Z,20.00
2022-12-11T22:53:50.853Z,17.80
2022-12-11T22:56:19.212Z,15.40
2022-12-11T22:58:47.286Z,20.90
2022-12-11T23:01:17.842Z,13.40
2022-12-11T23:03:45.925Z,23.20
2022-12-11T23:06:16.179Z,16.00
2022-12-11T23:08:45.678Z,16.33
2022-12-11T23:11:15.227Z,14.13
2022-12-11T23:13:43.655Z,15.63
2022-12-11T23:16:12.824Z,18.43
2022-12-11T23:18:41.538Z,17.90
2022-12-11T23:21:10.922Z,15.60
2022-12-11T23:23:38.952Z,18.07
2022-12-11T23:26:11.940Z,13.87
2022-12-11T23:28:40.913Z,14.23
2022-12-11T23:31:09.849Z,14.30
2022-12-11T23:33:38.350Z,13.70
2022-12-11T23:36:07.483Z,12.50
2022-12-11T23:38:35.631Z,15.23
2022-12-11T23:41:05.079Z,15.23
2022-12-11T23:43:35.641Z,14.30
2022-12-11T23:46:04.437Z,14.67
2022-12-11T23:48:32.366Z,11.50
2022-12-11T23:51:01.143Z,14.63
2022-12-11T23:53:29.530Z,13.30
2022-12-11T23:55:57.686Z,14.90
2022-12-11T23:58:25.731Z,12.03
